Terminal Aerodrome Forecast
Issued by NWS Twin Cities, MN

Home | Current Version | Previous Version | Text Only | Print | Product List | Glossary Off
Versions: 1 2 3 4 5 6 7 8 9 10 11 12 13 14 15 16 17 18 19 20 21 22 23 24 25

930
FTUS43 KMPX 031120
TAFMSP
TAF
KMSP 031120Z 0312/0418 25007KT P6SM SCT250
     FM031600 27014G22KT P6SM SCT120 BKN250
     FM032100 31018G28KT P6SM SCT070 BKN100
      TEMPO 0321/0324 6SM -SHRA BKN060
     FM040100 33014G21KT P6SM FEW100
     FM040600 34008KT P6SM SKC=

USA.gov is the U.S. government's official web portal to all federal, state and local government web resources and services.